sensor_id;sensor_type;location;lat;lon;timestamp;P1;durP1;ratioP1;P2;durP2;ratioP2
16870;SDS011;8552;48.120;-1.456;2024-01-30T00:00:09;26.95;;;13.70;;
16870;SDS011;8552;48.120;-1.456;2024-01-30T00:02:34;25.75;;;14.02;;
16870;SDS011;8552;48.120;-1.456;2024-01-30T00:05:00;21.52;;;13.02;;
16870;SDS011;8552;48.120;-1.456;2024-01-30T00:07:26;22.88;;;12.93;;
16870;SDS011;8552;48.120;-1.456;2024-01-30T00:09:51;21.58;;;13.38;;
16870;SDS011;8552;48.120;-1.456;2024-01-30T00:12:17;28.42;;;15.07;;
16870;SDS011;8552;48.120;-1.456;2024-01-30T00:14:43;26.65;;;15.90;;
16870;SDS011;8552;48.120;-1.456;2024-01-30T00:17:08;22.58;;;14.85;;
16870;SDS011;8552;48.120;-1.456;2024-01-30T00:19:34;22.65;;;13.77;;
16870;SDS011;8552;48.120;-1.456;2024-01-30T00:22:00;25.33;;;15.63;;
16870;SDS011;8552;48.120;-1.456;2024-01-30T00:24:26;27.90;;;15.05;;
16870;SDS011;8552;48.120;-1.456;2024-01-30T00:26:51;22.90;;;14.38;;
16870;SDS011;8552;48.120;-1.456;2024-01-30T00:29:17;28.73;;;13.95;;
16870;SDS011;8552;48.120;-1.456;2024-01-30T00:31:45;27.30;;;14.80;;
16870;SDS011;8552;48.120;-1.456;2024-01-30T00:34:10;23.10;;;14.13;;
16870;SDS011;8552;48.120;-1.456;2024-01-30T00:36:37;21.23;;;13.23;;
16870;SDS011;8552;48.120;-1.456;2024-01-30T00:39:02;24.90;;;13.65;;
16870;SDS011;8552;48.120;-1.456;2024-01-30T00:41:31;24.55;;;14.32;;
16870;SDS011;8552;48.120;-1.456;2024-01-30T00:43:57;24.98;;;14.48;;
16870;SDS011;8552;48.120;-1.456;2024-01-30T00:46:23;25.38;;;14.70;;
16870;SDS011;8552;48.120;-1.456;2024-01-30T00:48:48;26.67;;;14.20;;
16870;SDS011;8552;48.120;-1.456;2024-01-30T00:51:14;34.35;;;14.70;;
16870;SDS011;8552;48.120;-1.456;2024-01-30T00:53:40;24.42;;;14.25;;
16870;SDS011;8552;48.120;-1.456;2024-01-30T00:56:06;24.42;;;15.48;;
16870;SDS011;8552;48.120;-1.456;2024-01-30T00:58:33;23.17;;;13.65;;
16870;SDS011;8552;48.120;-1.456;2024-01-30T01:00:59;29.33;;;15.18;;
16870;SDS011;8552;48.120;-1.456;2024-01-30T01:03:24;28.23;;;14.73;;
16870;SDS011;8552;48.120;-1.456;2024-01-30T01:05:50;27.58;;;14.73;;
16870;SDS011;8552;48.120;-1.456;2024-01-30T01:08:16;25.05;;;14.50;;
16870;SDS011;8552;48.120;-1.456;2024-01-30T01:10:41;24.17;;;14.35;;
16870;SDS011;8552;48.120;-1.456;2024-01-30T01:13:07;32.47;;;14.93;;
16870;SDS011;8552;48.120;-1.456;2024-01-30T01:15:33;25.10;;;14.00;;
16870;SDS011;8552;48.120;-1.456;2024-01-30T01:17:58;28.55;;;14.15;;
16870;SDS011;8552;48.120;-1.456;2024-01-30T01:20:24;35.65;;;14.82;;
16870;SDS011;8552;48.120;-1.456;2024-01-30T01:22:49;31.98;;;15.95;;
16870;SDS011;8552;48.120;-1.456;2024-01-30T01:25:15;32.55;;;15.63;;
16870;SDS011;8552;48.120;-1.456;2024-01-30T01:27:41;30.70;;;15.82;;
16870;SDS011;8552;48.120;-1.456;2024-01-30T01:30:11;28.70;;;15.73;;
16870;SDS011;8552;48.120;-1.456;2024-01-30T01:32:39;35.95;;;16.13;;
16870;SDS011;8552;48.120;-1.456;2024-01-30T01:35:09;24.38;;;15.65;;
16870;SDS011;8552;48.120;-1.456;2024-01-30T01:37:36;24.83;;;14.73;;
16870;SDS011;8552;48.120;-1.456;2024-01-30T01:40:01;41.22;;;17.55;;
16870;SDS011;8552;48.120;-1.456;2024-01-30T01:42:27;27.77;;;14.93;;
16870;SDS011;8552;48.120;-1.456;2024-01-30T01:44:53;29.33;;;14.27;;
16870;SDS011;8552;48.120;-1.456;2024-01-30T01:47:19;32.33;;;14.82;;
16870;SDS011;8552;48.120;-1.456;2024-01-30T01:49:45;25.63;;;14.38;;
16870;SDS011;8552;48.120;-1.456;2024-01-30T01:52:11;32.72;;;14.43;;
16870;SDS011;8552;48.120;-1.456;2024-01-30T01:54:37;29.42;;;16.35;;
16870;SDS011;8552;48.120;-1.456;2024-01-30T01:57:03;28.25;;;14.98;;
16870;SDS011;8552;48.120;-1.456;2024-01-30T01:59:29;32.47;;;16.55;;
16870;SDS011;8552;48.120;-1.456;2024-01-30T02:01:55;28.52;;;14.85;;
16870;SDS011;8552;48.120;-1.456;2024-01-30T02:04:21;33.63;;;16.38;;
16870;SDS011;8552;48.120;-1.456;2024-01-30T02:06:47;26.95;;;14.75;;
16870;SDS011;8552;48.120;-1.456;2024-01-30T02:09:12;34.97;;;16.42;;
16870;SDS011;8552;48.120;-1.456;2024-01-30T02:11:38;33.90;;;15.75;;
16870;SDS011;8552;48.120;-1.456;2024-01-30T02:14:05;33.67;;;16.17;;
16870;SDS011;8552;48.120;-1.456;2024-01-30T02:16:31;31.85;;;16.55;;
16870;SDS011;8552;48.120;-1.456;2024-01-30T02:18:57;33.80;;;15.40;;
16870;SDS011;8552;48.120;-1.456;2024-01-30T02:21:23;30.95;;;15.82;;
16870;SDS011;8552;48.120;-1.456;2024-01-30T02:23:49;36.33;;;16.75;;
16870;SDS011;8552;48.120;-1.456;2024-01-30T02:26:17;32.33;;;16.50;;
16870;SDS011;8552;48.120;-1.456;2024-01-30T02:28:43;34.50;;;16.13;;
16870;SDS011;8552;48.120;-1.456;2024-01-30T02:31:08;29.40;;;16.27;;
16870;SDS011;8552;48.120;-1.456;2024-01-30T02:33:34;30.73;;;15.93;;
16870;SDS011;8552;48.120;-1.456;2024-01-30T02:36:00;29.30;;;15.32;;
16870;SDS011;8552;48.120;-1.456;2024-01-30T02:38:26;31.92;;;14.68;;
16870;SDS011;8552;48.120;-1.456;2024-01-30T02:40:52;33.75;;;14.95;;
16870;SDS011;8552;48.120;-1.456;2024-01-30T02:43:17;28.40;;;14.43;;
16870;SDS011;8552;48.120;-1.456;2024-01-30T02:45:43;28.50;;;14.48;;
16870;SDS011;8552;48.120;-1.456;2024-01-30T02:48:09;32.03;;;13.63;;
16870;SDS011;8552;48.120;-1.456;2024-01-30T02:50:35;26.45;;;13.52;;
16870;SDS011;8552;48.120;-1.456;2024-01-30T02:53:01;25.60;;;13.98;;
16870;SDS011;8552;48.120;-1.456;2024-01-30T02:55:26;28.85;;;12.48;;
16870;SDS011;8552;48.120;-1.456;2024-01-30T02:57:52;19.83;;;11.70;;
16870;SDS011;8552;48.120;-1.456;2024-01-30T03:00:18;25.13;;;13.50;;
16870;SDS011;8552;48.120;-1.456;2024-01-30T03:02:45;23.42;;;11.93;;
16870;SDS011;8552;48.120;-1.456;2024-01-30T03:05:10;20.50;;;10.93;;
16870;SDS011;8552;48.120;-1.456;2024-01-30T03:07:36;22.52;;;9.80;;
16870;SDS011;8552;48.120;-1.456;2024-01-30T03:10:03;16.92;;;8.07;;
16870;SDS011;8552;48.120;-1.456;2024-01-30T03:12:29;13.35;;;7.18;;
16870;SDS011;8552;48.120;-1.456;2024-01-30T03:14:55;14.85;;;6.78;;
16870;SDS011;8552;48.120;-1.456;2024-01-30T03:17:21;12.30;;;4.75;;
16870;SDS011;8552;48.120;-1.456;2024-01-30T03:19:46;10.63;;;4.93;;
16870;SDS011;8552;48.120;-1.456;2024-01-30T03:22:12;11.90;;;5.22;;
16870;SDS011;8552;48.120;-1.456;2024-01-30T03:24:39;10.00;;;5.13;;
16870;SDS011;8552;48.120;-1.456;2024-01-30T03:27:05;7.53;;;3.00;;
16870;SDS011;8552;48.120;-1.456;2024-01-30T03:29:31;10.38;;;3.55;;
16870;SDS011;8552;48.120;-1.456;2024-01-30T03:31:56;6.53;;;3.63;;
16870;SDS011;8552;48.120;-1.456;2024-01-30T03:34:22;6.63;;;2.53;;
16870;SDS011;8552;48.120;-1.456;2024-01-30T03:36:48;2.55;;;2.17;;
16870;SDS011;8552;48.120;-1.456;2024-01-30T03:39:14;5.85;;;2.50;;
16870;SDS011;8552;48.120;-1.456;2024-01-30T03:41:41;3.35;;;2.13;;
16870;SDS011;8552;48.120;-1.456;2024-01-30T03:44:08;4.45;;;2.13;;
16870;SDS011;8552;48.120;-1.456;2024-01-30T03:46:34;5.15;;;2.50;;
16870;SDS011;8552;48.120;-1.456;2024-01-30T03:48:59;1.63;;;1.45;;
16870;SDS011;8552;48.120;-1.456;2024-01-30T03:51:25;5.47;;;2.42;;
16870;SDS011;8552;48.120;-1.456;2024-01-30T03:53:51;6.18;;;1.95;;
16870;SDS011;8552;48.120;-1.456;2024-01-30T03:56:16;4.35;;;1.65;;
16870;SDS011;8552;48.120;-1.456;2024-01-30T03:58:42;6.05;;;1.85;;
16870;SDS011;8552;48.120;-1.456;2024-01-30T04:01:12;6.38;;;2.40;;
16870;SDS011;8552;48.120;-1.456;2024-01-30T04:03:41;6.03;;;1.58;;
16870;SDS011;8552;48.120;-1.456;2024-01-30T04:06:08;3.13;;;1.52;;
16870;SDS011;8552;48.120;-1.456;2024-01-30T04:08:34;5.05;;;1.48;;
16870;SDS011;8552;48.120;-1.456;2024-01-30T04:11:06;4.28;;;2.10;;
16870;SDS011;8552;48.120;-1.456;2024-01-30T04:13:32;3.30;;;1.50;;
16870;SDS011;8552;48.120;-1.456;2024-01-30T04:15:59;4.05;;;1.65;;
16870;SDS011;8552;48.120;-1.456;2024-01-30T04:18:26;3.25;;;1.50;;
16870;SDS011;8552;48.120;-1.456;2024-01-30T04:20:53;2.95;;;1.30;;
16870;SDS011;8552;48.120;-1.456;2024-01-30T04:23:19;4.25;;;1.70;;
16870;SDS011;8552;48.120;-1.456;2024-01-30T04:25:45;4.82;;;1.17;;
16870;SDS011;8552;48.120;-1.456;2024-01-30T04:28:10;4.00;;;1.55;;
16870;SDS011;8552;48.120;-1.456;2024-01-30T04:30:39;2.65;;;1.50;;
16870;SDS011;8552;48.120;-1.456;2024-01-30T04:33:05;2.85;;;1.30;;
16870;SDS011;8552;48.120;-1.456;2024-01-30T04:35:30;4.60;;;1.52;;
16870;SDS011;8552;48.120;-1.456;2024-01-30T04:37:56;1.80;;;1.10;;
16870;SDS011;8552;48.120;-1.456;2024-01-30T04:40:22;3.72;;;1.10;;
16870;SDS011;8552;48.120;-1.456;2024-01-30T04:42:47;2.97;;;1.08;;
16870;SDS011;8552;48.120;-1.456;2024-01-30T04:45:13;1.48;;;1.10;;
16870;SDS011;8552;48.120;-1.456;2024-01-30T04:47:39;3.35;;;1.58;;
16870;SDS011;8552;48.120;-1.456;2024-01-30T04:50:08;3.08;;;1.58;;
16870;SDS011;8552;48.120;-1.456;2024-01-30T04:52:34;4.47;;;1.58;;
16870;SDS011;8552;48.120;-1.456;2024-01-30T04:55:00;6.30;;;1.40;;
16870;SDS011;8552;48.120;-1.456;2024-01-30T04:57:26;2.15;;;1.83;;
16870;SDS011;8552;48.120;-1.456;2024-01-30T04:59:52;2.85;;;1.40;;
16870;SDS011;8552;48.120;-1.456;2024-01-30T05:02:18;3.95;;;1.67;;
16870;SDS011;8552;48.120;-1.456;2024-01-30T05:04:44;2.80;;;1.50;;
16870;SDS011;8552;48.120;-1.456;2024-01-30T05:07:10;4.10;;;2.60;;
16870;SDS011;8552;48.120;-1.456;2024-01-30T05:09:35;5.65;;;2.80;;
16870;SDS011;8552;48.120;-1.456;2024-01-30T05:12:01;3.38;;;1.73;;
16870;SDS011;8552;48.120;-1.456;2024-01-30T05:14:28;3.53;;;2.20;;
16870;SDS011;8552;48.120;-1.456;2024-01-30T05:16:53;2.58;;;1.80;;
16870;SDS011;8552;48.120;-1.456;2024-01-30T05:19:19;2.03;;;1.45;;
16870;SDS011;8552;48.120;-1.456;2024-01-30T05:21:46;1.70;;;1.35;;
16870;SDS011;8552;48.120;-1.456;2024-01-30T05:24:12;2.10;;;1.20;;
16870;SDS011;8552;48.120;-1.456;2024-01-30T05:26:37;0.80;;;0.75;;
16870;SDS011;8552;48.120;-1.456;2024-01-30T05:29:04;2.20;;;0.70;;
16870;SDS011;8552;48.120;-1.456;2024-01-30T05:31:30;0.88;;;0.80;;
16870;SDS011;8552;48.120;-1.456;2024-01-30T05:33:56;2.90;;;0.98;;
16870;SDS011;8552;48.120;-1.456;2024-01-30T05:36:21;2.67;;;2.08;;
16870;SDS011;8552;48.120;-1.456;2024-01-30T05:38:47;1.08;;;0.80;;
16870;SDS011;8552;48.120;-1.456;2024-01-30T05:41:13;1.70;;;0.82;;
16870;SDS011;8552;48.120;-1.456;2024-01-30T05:43:38;0.90;;;0.90;;
16870;SDS011;8552;48.120;-1.456;2024-01-30T05:46:04;3.30;;;0.88;;
16870;SDS011;8552;48.120;-1.456;2024-01-30T05:48:31;0.77;;;0.77;;
16870;SDS011;8552;48.120;-1.456;2024-01-30T05:50:56;1.38;;;0.73;;
16870;SDS011;8552;48.120;-1.456;2024-01-30T05:53:22;2.45;;;0.80;;
16870;SDS011;8552;48.120;-1.456;2024-01-30T05:55:48;1.40;;;1.00;;
16870;SDS011;8552;48.120;-1.456;2024-01-30T05:58:13;0.90;;;0.90;;
16870;SDS011;8552;48.120;-1.456;2024-01-30T06:00:39;0.95;;;0.80;;
16870;SDS011;8552;48.120;-1.456;2024-01-30T06:03:05;1.55;;;0.70;;
16870;SDS011;8552;48.120;-1.456;2024-01-30T06:05:31;0.93;;;0.80;;
16870;SDS011;8552;48.120;-1.456;2024-01-30T06:07:57;0.77;;;0.68;;
16870;SDS011;8552;48.120;-1.456;2024-01-30T06:10:22;0.75;;;0.73;;
16870;SDS011;8552;48.120;-1.456;2024-01-30T06:12:48;3.00;;;0.70;;
16870;SDS011;8552;48.120;-1.456;2024-01-30T06:15:14;0.70;;;0.50;;
16870;SDS011;8552;48.120;-1.456;2024-01-30T06:17:40;2.10;;;1.65;;
16870;SDS011;8552;48.120;-1.456;2024-01-30T06:20:08;3.08;;;1.25;;
16870;SDS011;8552;48.120;-1.456;2024-01-30T06:22:36;0.82;;;0.60;;
16870;SDS011;8552;48.120;-1.456;2024-01-30T06:25:13;0.75;;;0.75;;
16870;SDS011;8552;48.120;-1.456;2024-01-30T06:27:38;0.30;;;0.30;;
16870;SDS011;8552;48.120;-1.456;2024-01-30T06:30:04;2.47;;;0.82;;
16870;SDS011;8552;48.120;-1.456;2024-01-30T06:32:30;1.50;;;0.65;;
16870;SDS011;8552;48.120;-1.456;2024-01-30T06:34:59;0.45;;;0.45;;
16870;SDS011;8552;48.120;-1.456;2024-01-30T06:37:25;0.38;;;0.38;;
16870;SDS011;8552;48.120;-1.456;2024-01-30T06:39:51;1.58;;;0.60;;
16870;SDS011;8552;48.120;-1.456;2024-01-30T06:42:17;0.95;;;0.35;;
16870;SDS011;8552;48.120;-1.456;2024-01-30T06:44:43;0.40;;;0.40;;
16870;SDS011;8552;48.120;-1.456;2024-01-30T06:47:09;1.42;;;0.85;;
16870;SDS011;8552;48.120;-1.456;2024-01-30T06:49:35;1.70;;;0.57;;
16870;SDS011;8552;48.120;-1.456;2024-01-30T06:52:04;2.42;;;1.65;;
16870;SDS011;8552;48.120;-1.456;2024-01-30T06:54:31;0.77;;;0.52;;
16870;SDS011;8552;48.120;-1.456;2024-01-30T06:56:57;1.65;;;0.50;;
16870;SDS011;8552;48.120;-1.456;2024-01-30T06:59:23;0.82;;;0.70;;
16870;SDS011;8552;48.120;-1.456;2024-01-30T07:01:49;0.85;;;0.70;;
16870;SDS011;8552;48.120;-1.456;2024-01-30T07:04:17;0.65;;;0.50;;
16870;SDS011;8552;48.120;-1.456;2024-01-30T07:06:43;1.35;;;0.60;;
16870;SDS011;8552;48.120;-1.456;2024-01-30T07:09:09;2.42;;;0.93;;
16870;SDS011;8552;48.120;-1.456;2024-01-30T07:11:35;1.25;;;0.60;;
16870;SDS011;8552;48.120;-1.456;2024-01-30T07:14:00;1.83;;;0.88;;
16870;SDS011;8552;48.120;-1.456;2024-01-30T07:16:28;1.05;;;0.80;;
16870;SDS011;8552;48.120;-1.456;2024-01-30T07:18:54;0.80;;;0.80;;
16870;SDS011;8552;48.120;-1.456;2024-01-30T07:21:21;2.25;;;0.73;;
16870;SDS011;8552;48.120;-1.456;2024-01-30T07:23:50;3.90;;;1.10;;
16870;SDS011;8552;48.120;-1.456;2024-01-30T07:26:15;4.22;;;1.30;;
16870;SDS011;8552;48.120;-1.456;2024-01-30T07:28:44;3.60;;;2.03;;
16870;SDS011;8552;48.120;-1.456;2024-01-30T07:31:19;3.90;;;2.53;;
16870;SDS011;8552;48.120;-1.456;2024-01-30T07:33:48;3.80;;;2.50;;
16870;SDS011;8552;48.120;-1.456;2024-01-30T07:36:16;5.38;;;3.53;;
16870;SDS011;8552;48.120;-1.456;2024-01-30T07:38:42;4.85;;;3.20;;
16870;SDS011;8552;48.120;-1.456;2024-01-30T07:41:08;4.03;;;3.33;;
16870;SDS011;8552;48.120;-1.456;2024-01-30T07:43:33;12.07;;;5.10;;
16870;SDS011;8552;48.120;-1.456;2024-01-30T07:45:59;5.03;;;3.45;;
16870;SDS011;8552;48.120;-1.456;2024-01-30T07:48:26;11.32;;;4.32;;
16870;SDS011;8552;48.120;-1.456;2024-01-30T07:50:52;8.77;;;4.65;;
16870;SDS011;8552;48.120;-1.456;2024-01-30T07:53:18;7.20;;;4.55;;
16870;SDS011;8552;48.120;-1.456;2024-01-30T07:55:47;9.38;;;6.50;;
16870;SDS011;8552;48.120;-1.456;2024-01-30T07:58:13;10.53;;;6.67;;
16870;SDS011;8552;48.120;-1.456;2024-01-30T08:00:39;10.55;;;7.18;;
16870;SDS011;8552;48.120;-1.456;2024-01-30T08:03:05;14.07;;;8.40;;
16870;SDS011;8552;48.120;-1.456;2024-01-30T08:05:31;16.15;;;8.95;;
16870;SDS011;8552;48.120;-1.456;2024-01-30T08:07:56;8.48;;;6.30;;
16870;SDS011;8552;48.120;-1.456;2024-01-30T08:10:22;9.20;;;6.32;;
16870;SDS011;8552;48.120;-1.456;2024-01-30T08:12:48;8.77;;;6.27;;
16870;SDS011;8552;48.120;-1.456;2024-01-30T08:15:14;12.68;;;6.30;;
16870;SDS011;8552;48.120;-1.456;2024-01-30T08:17:40;13.10;;;6.83;;
16870;SDS011;8552;48.120;-1.456;2024-01-30T08:20:06;7.87;;;5.80;;
16870;SDS011;8552;48.120;-1.456;2024-01-30T08:22:33;9.75;;;6.43;;
16870;SDS011;8552;48.120;-1.456;2024-01-30T08:24:59;8.10;;;5.80;;
16870;SDS011;8552;48.120;-1.456;2024-01-30T08:27:25;7.17;;;5.63;;
16870;SDS011;8552;48.120;-1.456;2024-01-30T08:29:50;6.13;;;5.35;;
16870;SDS011;8552;48.120;-1.456;2024-01-30T08:32:16;5.03;;;4.33;;
16870;SDS011;8552;48.120;-1.456;2024-01-30T08:34:42;6.20;;;5.63;;
16870;SDS011;8552;48.120;-1.456;2024-01-30T08:37:07;7.63;;;5.85;;
16870;SDS011;8552;48.120;-1.456;2024-01-30T08:39:33;5.60;;;5.10;;
16870;SDS011;8552;48.120;-1.456;2024-01-30T08:41:59;7.77;;;5.37;;
16870;SDS011;8552;48.120;-1.456;2024-01-30T08:44:25;5.95;;;4.65;;
16870;SDS011;8552;48.120;-1.456;2024-01-30T08:46:50;5.35;;;4.40;;
16870;SDS011;8552;48.120;-1.456;2024-01-30T08:49:16;7.67;;;4.10;;
16870;SDS011;8552;48.120;-1.456;2024-01-30T08:51:42;6.28;;;4.82;;
16870;SDS011;8552;48.120;-1.456;2024-01-30T08:54:08;6.15;;;4.13;;
16870;SDS011;8552;48.120;-1.456;2024-01-30T08:56:33;5.60;;;3.60;;
16870;SDS011;8552;48.120;-1.456;2024-01-30T08:58:59;13.15;;;7.53;;
16870;SDS011;8552;48.120;-1.456;2024-01-30T09:01:25;5.57;;;3.28;;
16870;SDS011;8552;48.120;-1.456;2024-01-30T09:03:51;6.20;;;3.53;;
16870;SDS011;8552;48.120;-1.456;2024-01-30T09:06:17;3.47;;;2.63;;
16870;SDS011;8552;48.120;-1.456;2024-01-30T09:08:43;4.93;;;2.83;;
16870;SDS011;8552;48.120;-1.456;2024-01-30T09:11:09;4.33;;;3.30;;
16870;SDS011;8552;48.120;-1.456;2024-01-30T09:13:36;4.77;;;2.80;;
16870;SDS011;8552;48.120;-1.456;2024-01-30T09:16:02;3.10;;;2.80;;
16870;SDS011;8552;48.120;-1.456;2024-01-30T09:18:28;4.20;;;2.63;;
16870;SDS011;8552;48.120;-1.456;2024-01-30T09:20:54;3.28;;;2.97;;
16870;SDS011;8552;48.120;-1.456;2024-01-30T09:23:20;4.47;;;3.20;;
16870;SDS011;8552;48.120;-1.456;2024-01-30T09:25:45;5.22;;;3.05;;
16870;SDS011;8552;48.120;-1.456;2024-01-30T09:28:11;6.97;;;3.53;;
16870;SDS011;8552;48.120;-1.456;2024-01-30T09:30:36;4.28;;;3.22;;
16870;SDS011;8552;48.120;-1.456;2024-01-30T09:33:02;4.33;;;2.60;;
16870;SDS011;8552;48.120;-1.456;2024-01-30T09:35:28;2.80;;;2.57;;
16870;SDS011;8552;48.120;-1.456;2024-01-30T09:37:55;2.63;;;2.40;;
16870;SDS011;8552;48.120;-1.456;2024-01-30T09:40:22;2.40;;;2.20;;
16870;SDS011;8552;48.120;-1.456;2024-01-30T09:42:47;2.70;;;1.90;;
16870;SDS011;8552;48.120;-1.456;2024-01-30T09:45:15;4.90;;;2.00;;
16870;SDS011;8552;48.120;-1.456;2024-01-30T09:47:43;8.20;;;3.20;;
16870;SDS011;8552;48.120;-1.456;2024-01-30T09:50:13;6.60;;;3.00;;
16870;SDS011;8552;48.120;-1.456;2024-01-30T09:52:40;3.87;;;2.00;;
16870;SDS011;8552;48.120;-1.456;2024-01-30T09:55:08;1.80;;;1.37;;
16870;SDS011;8552;48.120;-1.456;2024-01-30T09:57:34;2.23;;;1.83;;
16870;SDS011;8552;48.120;-1.456;2024-01-30T10:00:00;2.93;;;1.87;;
16870;SDS011;8552;48.120;-1.456;2024-01-30T10:02:27;3.93;;;2.10;;
16870;SDS011;8552;48.120;-1.456;2024-01-30T10:04:52;6.20;;;1.92;;
16870;SDS011;8552;48.120;-1.456;2024-01-30T10:07:18;2.78;;;1.75;;
16870;SDS011;8552;48.120;-1.456;2024-01-30T10:09:44;5.13;;;2.75;;
16870;SDS011;8552;48.120;-1.456;2024-01-30T10:12:10;3.70;;;1.90;;
16870;SDS011;8552;48.120;-1.456;2024-01-30T10:14:40;1.70;;;1.42;;
16870;SDS011;8552;48.120;-1.456;2024-01-30T10:17:09;1.40;;;1.20;;
16870;SDS011;8552;48.120;-1.456;2024-01-30T10:19:37;2.77;;;1.27;;
16870;SDS011;8552;48.120;-1.456;2024-01-30T10:22:05;2.03;;;1.38;;
16870;SDS011;8552;48.120;-1.456;2024-01-30T10:24:31;1.60;;;1.40;;
16870;SDS011;8552;48.120;-1.456;2024-01-30T10:26:58;4.30;;;2.07;;
16870;SDS011;8552;48.120;-1.456;2024-01-30T10:29:24;5.03;;;1.87;;
16870;SDS011;8552;48.120;-1.456;2024-01-30T10:32:02;3.70;;;1.80;;
16870;SDS011;8552;48.120;-1.456;2024-01-30T10:34:29;2.40;;;2.10;;
16870;SDS011;8552;48.120;-1.456;2024-01-30T10:37:07;2.83;;;1.92;;
16870;SDS011;8552;48.120;-1.456;2024-01-30T10:39:43;2.08;;;1.30;;
16870;SDS011;8552;48.120;-1.456;2024-01-30T10:42:14;1.35;;;1.25;;
16870;SDS011;8552;48.120;-1.456;2024-01-30T10:47:30;1.52;;;1.13;;
16870;SDS011;8552;48.120;-1.456;2024-01-30T10:49:58;1.00;;;0.90;;
16870;SDS011;8552;48.120;-1.456;2024-01-30T10:52:26;1.10;;;1.00;;
16870;SDS011;8552;48.120;-1.456;2024-01-30T10:54:53;0.93;;;0.80;;
16870;SDS011;8552;48.120;-1.456;2024-01-30T10:57:20;1.30;;;1.20;;
16870;SDS011;8552;48.120;-1.456;2024-01-30T10:59:49;2.53;;;0.93;;
16870;SDS011;8552;48.120;-1.456;2024-01-30T11:02:16;1.23;;;0.80;;
16870;SDS011;8552;48.120;-1.456;2024-01-30T11:04:42;1.35;;;0.60;;
16870;SDS011;8552;48.120;-1.456;2024-01-30T11:07:17;0.68;;;0.60;;
16870;SDS011;8552;48.120;-1.456;2024-01-30T11:10:19;0.57;;;0.57;;
16870;SDS011;8552;48.120;-1.456;2024-01-30T11:12:40;2.20;;;1.88;;
16870;SDS011;8552;48.120;-1.456;2024-01-30T11:17:39;4.30;;;0.60;;
16870;SDS011;8552;48.120;-1.456;2024-01-30T11:20:12;1.20;;;0.25;;
16870;SDS011;8552;48.120;-1.456;2024-01-30T11:22:41;1.08;;;0.40;;
16870;SDS011;8552;48.120;-1.456;2024-01-30T11:25:11;1.77;;;0.40;;
16870;SDS011;8552;48.120;-1.456;2024-01-30T11:27:37;1.08;;;0.30;;
16870;SDS011;8552;48.120;-1.456;2024-01-30T11:30:04;0.40;;;0.40;;
16870;SDS011;8552;48.120;-1.456;2024-01-30T11:32:30;0.55;;;0.20;;
16870;SDS011;8552;48.120;-1.456;2024-01-30T11:34:56;0.47;;;0.38;;
16870;SDS011;8552;48.120;-1.456;2024-01-30T11:37:23;4.10;;;0.38;;
16870;SDS011;8552;48.120;-1.456;2024-01-30T11:39:51;0.52;;;0.52;;
16870;SDS011;8552;48.120;-1.456;2024-01-30T11:42:23;0.57;;;0.57;;
16870;SDS011;8552;48.120;-1.456;2024-01-30T11:44:50;1.35;;;0.40;;
16870;SDS011;8552;48.120;-1.456;2024-01-30T11:47:16;0.57;;;0.57;;
16870;SDS011;8552;48.120;-1.456;2024-01-30T11:49:42;2.72;;;0.80;;
16870;SDS011;8552;48.120;-1.456;2024-01-30T11:52:09;1.67;;;0.40;;
16870;SDS011;8552;48.120;-1.456;2024-01-30T11:54:35;1.73;;;0.88;;
16870;SDS011;8552;48.120;-1.456;2024-01-30T11:57:01;0.38;;;0.22;;
16870;SDS011;8552;48.120;-1.456;2024-01-30T11:59:26;1.40;;;0.50;;
16870;SDS011;8552;48.120;-1.456;2024-01-30T12:01:52;0.70;;;0.50;;
16870;SDS011;8552;48.120;-1.456;2024-01-30T12:04:18;1.38;;;0.40;;
16870;SDS011;8552;48.120;-1.456;2024-01-30T12:06:43;0.82;;;0.57;;
16870;SDS011;8552;48.120;-1.456;2024-01-30T12:09:09;0.85;;;0.30;;
16870;SDS011;8552;48.120;-1.456;2024-01-30T12:11:44;1.77;;;0.40;;
16870;SDS011;8552;48.120;-1.456;2024-01-30T12:14:13;0.80;;;0.52;;
16870;SDS011;8552;48.120;-1.456;2024-01-30T12:16:40;3.13;;;0.50;;
16870;SDS011;8552;48.120;-1.456;2024-01-30T12:19:09;0.50;;;0.50;;
16870;SDS011;8552;48.120;-1.456;2024-01-30T12:21:34;1.15;;;0.77;;
16870;SDS011;8552;48.120;-1.456;2024-01-30T12:24:01;4.13;;;1.05;;
16870;SDS011;8552;48.120;-1.456;2024-01-30T12:26:26;1.48;;;1.17;;
16870;SDS011;8552;48.120;-1.456;2024-01-30T12:28:56;1.23;;;1.10;;
16870;SDS011;8552;48.120;-1.456;2024-01-30T12:31:27;1.67;;;0.90;;
16870;SDS011;8552;48.120;-1.456;2024-01-30T12:33:53;1.55;;;1.00;;
16870;SDS011;8552;48.120;-1.456;2024-01-30T12:36:20;1.30;;;1.02;;
16870;SDS011;8552;48.120;-1.456;2024-01-30T12:38:47;1.55;;;1.00;;
16870;SDS011;8552;48.120;-1.456;2024-01-30T12:41:12;1.38;;;0.82;;
16870;SDS011;8552;48.120;-1.456;2024-01-30T12:43:38;2.05;;;0.70;;
16870;SDS011;8552;48.120;-1.456;2024-01-30T12:46:04;1.63;;;0.52;;
16870;SDS011;8552;48.120;-1.456;2024-01-30T12:48:30;1.05;;;0.40;;
16870;SDS011;8552;48.120;-1.456;2024-01-30T12:50:56;0.35;;;0.32;;
16870;SDS011;8552;48.120;-1.456;2024-01-30T12:53:22;0.73;;;0.30;;
16870;SDS011;8552;48.120;-1.456;2024-01-30T12:55:48;1.88;;;0.50;;
16870;SDS011;8552;48.120;-1.456;2024-01-30T12:58:15;1.45;;;0.63;;
16870;SDS011;8552;48.120;-1.456;2024-01-30T13:00:41;2.85;;;0.47;;
16870;SDS011;8552;48.120;-1.456;2024-01-30T13:03:10;1.08;;;0.60;;
16870;SDS011;8552;48.120;-1.456;2024-01-30T13:05:36;0.30;;;0.30;;
16870;SDS011;8552;48.120;-1.456;2024-01-30T13:08:02;0.50;;;0.40;;
16870;SDS011;8552;48.120;-1.456;2024-01-30T13:10:28;3.53;;;0.52;;
16870;SDS011;8552;48.120;-1.456;2024-01-30T13:12:54;1.58;;;0.40;;
16870;SDS011;8552;48.120;-1.456;2024-01-30T13:15:20;0.90;;;0.32;;
16870;SDS011;8552;48.120;-1.456;2024-01-30T13:17:47;1.20;;;0.40;;
16870;SDS011;8552;48.120;-1.456;2024-01-30T13:20:14;1.05;;;0.32;;
16870;SDS011;8552;48.120;-1.456;2024-01-30T13:22:46;1.42;;;0.50;;
16870;SDS011;8552;48.120;-1.456;2024-01-30T13:25:14;1.80;;;0.60;;
16870;SDS011;8552;48.120;-1.456;2024-01-30T13:27:39;2.42;;;0.60;;
16870;SDS011;8552;48.120;-1.456;2024-01-30T13:30:06;2.17;;;0.40;;
16870;SDS011;8552;48.120;-1.456;2024-01-30T13:32:34;1.55;;;0.88;;
16870;SDS011;8552;48.120;-1.456;2024-01-30T13:34:59;0.93;;;0.40;;
16870;SDS011;8552;48.120;-1.456;2024-01-30T13:37:25;1.58;;;0.55;;
16870;SDS011;8552;48.120;-1.456;2024-01-30T13:39:51;1.45;;;0.30;;
16870;SDS011;8552;48.120;-1.456;2024-01-30T13:42:16;1.23;;;0.30;;
16870;SDS011;8552;48.120;-1.456;2024-01-30T13:44:42;0.40;;;0.30;;
16870;SDS011;8552;48.120;-1.456;2024-01-30T13:47:10;1.60;;;0.57;;
16870;SDS011;8552;48.120;-1.456;2024-01-30T13:49:36;1.05;;;0.40;;
16870;SDS011;8552;48.120;-1.456;2024-01-30T13:52:01;1.27;;;0.80;;
16870;SDS011;8552;48.120;-1.456;2024-01-30T13:54:28;1.15;;;0.52;;
16870;SDS011;8552;48.120;-1.456;2024-01-30T13:56:55;6.40;;;1.02;;
16870;SDS011;8552;48.120;-1.456;2024-01-30T13:59:21;0.85;;;0.70;;
16870;SDS011;8552;48.120;-1.456;2024-01-30T14:01:49;2.67;;;0.60;;
16870;SDS011;8552;48.120;-1.456;2024-01-30T14:04:16;2.65;;;0.57;;
16870;SDS011;8552;48.120;-1.456;2024-01-30T14:06:41;0.50;;;0.30;;
16870;SDS011;8552;48.120;-1.456;2024-01-30T14:09:07;0.68;;;0.68;;
16870;SDS011;8552;48.120;-1.456;2024-01-30T14:11:38;1.67;;;0.63;;
16870;SDS011;8552;48.120;-1.456;2024-01-30T14:14:13;1.08;;;0.30;;
16870;SDS011;8552;48.120;-1.456;2024-01-30T14:16:45;0.20;;;0.20;;
16870;SDS011;8552;48.120;-1.456;2024-01-30T14:19:15;1.50;;;0.20;;
16870;SDS011;8552;48.120;-1.456;2024-01-30T14:21:44;2.60;;;0.52;;
16870;SDS011;8552;48.120;-1.456;2024-01-30T14:24:09;1.45;;;0.40;;
16870;SDS011;8552;48.120;-1.456;2024-01-30T14:26:35;0.30;;;0.30;;
16870;SDS011;8552;48.120;-1.456;2024-01-30T14:29:01;1.40;;;0.38;;
16870;SDS011;8552;48.120;-1.456;2024-01-30T14:31:27;0.32;;;0.22;;
16870;SDS011;8552;48.120;-1.456;2024-01-30T14:33:53;1.85;;;0.57;;
16870;SDS011;8552;48.120;-1.456;2024-01-30T14:36:20;1.65;;;0.50;;
16870;SDS011;8552;48.120;-1.456;2024-01-30T14:38:45;0.73;;;0.40;;
16870;SDS011;8552;48.120;-1.456;2024-01-30T14:41:11;1.00;;;0.75;;